createdAt,value
2017-08-29T00:00:42.007Z,78.83
2017-08-29T00:01:42.026Z,79.02
2017-08-29T00:02:42.028Z,79.02
2017-08-29T00:03:42.035Z,80.36
2017-08-29T00:04:42.050Z,80.17
2017-08-29T00:05:42.061Z,79.88
2017-08-29T00:06:42.093Z,79.88
2017-08-29T00:07:42.094Z,79.88
2017-08-29T00:08:42.120Z,79.88
2017-08-29T00:09:42.136Z,80.75
2017-08-29T00:10:42.137Z,80.75
2017-08-29T00:11:42.164Z,80.94
2017-08-29T00:12:42.152Z,81.13
2017-08-29T00:13:42.178Z,81.04
2017-08-29T00:14:42.213Z,80.55
2017-08-29T00:15:42.188Z,81.32
2017-08-29T00:16:42.226Z,81.38
2017-08-29T00:17:42.216Z,81.19
2017-08-29T00:18:42.244Z,81.42
2017-08-29T00:19:42.265Z,81.48
2017-08-29T00:20:42.260Z,81.13
2017-08-29T00:21:42.279Z,81.52
2017-08-29T00:22:42.300Z,81.71
2017-08-29T00:23:42.297Z,81.71
2017-08-29T00:24:42.319Z,81.52
2017-08-29T00:25:42.355Z,81.42
2017-08-29T00:26:42.371Z,80.75
2017-08-29T00:27:42.358Z,81.32
2017-08-29T00:28:42.378Z,80.94
2017-08-29T00:29:42.368Z,81.23
2017-08-29T00:30:42.396Z,81.04
2017-08-29T00:31:42.409Z,81.52
2017-08-29T00:32:42.440Z,81.28
2017-08-29T00:33:42.428Z,81.32
2017-08-29T00:34:42.453Z,81.99
2017-08-29T00:35:42.467Z,81.90
2017-08-29T00:36:42.477Z,81.61
2017-08-29T00:37:42.532Z,81.81
2017-08-29T00:38:42.524Z,81.67
2017-08-29T00:39:42.525Z,81.96
2017-08-29T00:40:42.532Z,81.99
2017-08-29T00:41:42.564Z,81.76
2017-08-29T00:42:42.571Z,82.34
2017-08-29T00:43:42.564Z,82.73
2017-08-29T00:44:42.598Z,82.73
2017-08-29T00:45:42.637Z,83.30
2017-08-29T00:46:42.623Z,83.01
2017-08-29T00:47:42.627Z,83.11
2017-08-29T00:48:42.633Z,83.20
2017-08-29T00:49:42.648Z,83.59
2017-08-29T00:50:42.660Z,83.59
2017-08-29T00:51:42.677Z,83.20
2017-08-29T00:52:42.691Z,83.11
2017-08-29T00:53:42.711Z,83.40
2017-08-29T00:54:42.740Z,83.59
2017-08-29T00:55:42.745Z,83.78
2017-08-29T00:56:42.773Z,83.78
2017-08-29T00:57:42.786Z,83.11
2017-08-29T00:58:42.764Z,83.40
2017-08-29T00:59:42.795Z,83.40
2017-08-29T01:00:42.818Z,83.59
2017-08-29T01:01:42.825Z,83.59
2017-08-29T01:02:42.833Z,83.20
2017-08-29T01:03:42.833Z,83.20
2017-08-29T01:04:42.854Z,83.20
2017-08-29T01:05:42.881Z,83.49
2017-08-29T01:06:42.911Z,83.20
2017-08-29T01:07:42.924Z,83.07
2017-08-29T01:08:42.914Z,83.49
2017-08-29T01:09:42.951Z,83.20
2017-08-29T01:10:42.956Z,83.40
2017-08-29T01:11:42.947Z,83.20
2017-08-29T01:12:42.981Z,83.26
2017-08-29T01:13:42.984Z,83.59
2017-08-29T01:14:43.001Z,83.20
2017-08-29T01:15:42.998Z,83.20
2017-08-29T01:16:43.023Z,83.54
2017-08-29T01:17:43.046Z,83.49
2017-08-29T01:18:43.037Z,83.30
2017-08-29T01:19:43.057Z,83.26
2017-08-29T01:20:43.077Z,83.16
2017-08-29T01:21:43.080Z,82.87
2017-08-29T01:22:43.101Z,83.16
2017-08-29T01:23:43.099Z,83.26
2017-08-29T01:24:43.109Z,83.01
2017-08-29T01:25:43.154Z,83.40
2017-08-29T01:26:43.159Z,83.36
2017-08-29T01:27:43.171Z,83.26
2017-08-29T01:28:43.179Z,83.11
2017-08-29T01:29:43.199Z,83.64
2017-08-29T01:30:43.200Z,83.93
2017-08-29T01:31:43.209Z,83.87
2017-08-29T01:32:43.248Z,83.69
2017-08-29T01:33:43.245Z,84.31
2017-08-29T01:34:43.283Z,84.22
2017-08-29T01:35:43.260Z,84.31
2017-08-29T01:36:43.325Z,84.22
2017-08-29T01:37:43.322Z,84.31
2017-08-29T01:38:43.303Z,84.41
2017-08-29T01:39:43.315Z,84.31
2017-08-29T01:40:43.354Z,84.80
2017-08-29T01:41:43.350Z,84.51
2017-08-29T01:42:43.358Z,84.60
2017-08-29T01:43:43.385Z,84.60
2017-08-29T01:44:43.415Z,84.22
2017-08-29T01:45:43.418Z,84.12
2017-08-29T01:46:43.433Z,84.31
2017-08-29T01:47:43.434Z,84.41
2017-08-29T01:48:43.475Z,84.12
2017-08-29T01:49:43.474Z,84.22
2017-08-29T01:50:43.499Z,84.22
2017-08-29T01:51:43.532Z,84.22
2017-08-29T01:52:43.530Z,84.51
2017-08-29T01:53:43.549Z,84.41
2017-08-29T01:54:43.552Z,84.22
2017-08-29T01:55:43.524Z,84.31
2017-08-29T01:56:43.554Z,84.41
2017-08-29T01:57:43.556Z,84.12
2017-08-29T01:58:43.573Z,83.93
2017-08-29T01:59:43.584Z,84.03
2017-08-29T02:00:43.602Z,83.84
2017-08-29T02:01:43.621Z,83.74
2017-08-29T02:02:43.660Z,83.93
2017-08-29T02:03:43.641Z,83.93
2017-08-29T02:04:43.664Z,84.12
2017-08-29T02:05:43.670Z,84.03
2017-08-29T02:06:43.671Z,83.84
2017-08-29T02:07:43.728Z,83.84
2017-08-29T02:08:43.699Z,84.03
2017-08-29T02:09:43.721Z,84.12
2017-08-29T02:10:43.742Z,84.03
2017-08-29T02:11:43.749Z,83.64
2017-08-29T02:12:43.771Z,83.93
2017-08-29T02:13:43.780Z,83.84
2017-08-29T02:14:43.802Z,83.93
2017-08-29T02:15:43.815Z,83.84
2017-08-29T02:16:43.810Z,84.03
2017-08-29T02:17:43.841Z,84.41
2017-08-29T02:18:43.839Z,83.93
2017-08-29T02:19:43.853Z,83.74
2017-08-29T02:20:43.857Z,83.93
2017-08-29T02:21:43.939Z,83.84
2017-08-29T02:22:43.890Z,83.74
2017-08-29T02:23:43.914Z,83.64
2017-08-29T02:24:43.937Z,83.64
2017-08-29T02:25:43.927Z,84.03
2017-08-29T02:26:43.929Z,83.84
2017-08-29T02:27:44.005Z,83.84
2017-08-29T02:28:43.991Z,83.64
2017-08-29T02:29:44.015Z,84.22
2017-08-29T02:30:44.011Z,83.93
2017-08-29T02:31:44.005Z,84.31
2017-08-29T02:32:44.035Z,84.22
2017-08-29T02:33:44.038Z,84.31
2017-08-29T02:34:44.036Z,84.12
2017-08-29T02:35:44.083Z,84.22
2017-08-29T02:36:44.089Z,84.22
2017-08-29T02:37:44.096Z,83.74
2017-08-29T02:38:44.121Z,83.74
2017-08-29T02:39:44.136Z,83.93
2017-08-29T02:40:44.120Z,83.93
2017-08-29T02:41:44.180Z,83.64
2017-08-29T02:42:44.181Z,83.74
2017-08-29T02:43:44.159Z,84.31
2017-08-29T02:44:44.249Z,83.93
2017-08-29T02:45:44.195Z,83.70
2017-08-29T02:46:44.207Z,84.18
2017-08-29T02:47:44.214Z,84.31
2017-08-29T02:48:44.234Z,84.47
2017-08-29T02:49:44.239Z,84.18
2017-08-29T02:50:44.253Z,83.98
2017-08-29T02:51:44.273Z,84.37
2017-08-29T02:52:44.283Z,84.56
2017-08-29T02:53:44.313Z,84.56
2017-08-29T02:54:44.351Z,85.04
2017-08-29T02:55:44.375Z,85.24
2017-08-29T02:56:44.333Z,85.04
2017-08-29T02:57:44.347Z,85.24
2017-08-29T02:58:44.401Z,85.24
2017-08-29T02:59:44.375Z,85.71
2017-08-29T03:00:44.402Z,85.62
2017-08-29T03:01:44.405Z,85.81
2017-08-29T03:02:44.433Z,85.24
2017-08-29T03:03:44.415Z,85.24
2017-08-29T03:04:44.439Z,85.24
2017-08-29T03:05:44.466Z,85.24
2017-08-29T03:06:44.467Z,85.33
2017-08-29T03:07:44.477Z,85.04
2017-08-29T03:08:44.487Z,85.33
2017-08-29T03:09:44.498Z,85.33
2017-08-29T03:10:44.518Z,85.24
2017-08-29T03:11:44.529Z,85.62
2017-08-29T03:12:44.532Z,85.42
2017-08-29T03:13:44.549Z,86.29
2017-08-29T03:14:44.586Z,86.48
2017-08-29T03:15:44.579Z,86.68
2017-08-29T03:16:44.603Z,86.38
2017-08-29T03:17:44.607Z,86.25
2017-08-29T03:18:44.634Z,86.29
2017-08-29T03:19:44.630Z,86.15
2017-08-29T03:20:44.666Z,86.48
2017-08-29T03:21:44.653Z,85.77
2017-08-29T03:22:44.672Z,85.77
2017-08-29T03:23:44.712Z,86.44
2017-08-29T03:24:44.697Z,86.34
2017-08-29T03:25:44.700Z,86.54
2017-08-29T03:26:44.760Z,86.68
2017-08-29T03:27:44.754Z,86.72
2017-08-29T03:28:44.770Z,85.86
2017-08-29T03:29:44.764Z,86.00
2017-08-29T03:30:44.768Z,86.05
2017-08-29T03:31:44.785Z,86.05
2017-08-29T03:32:44.811Z,86.05
2017-08-29T03:33:44.830Z,86.25
2017-08-29T03:34:44.843Z,85.58
2017-08-29T03:35:44.829Z,85.67
2017-08-29T03:36:44.844Z,85.67
2017-08-29T03:37:44.866Z,85.77
2017-08-29T03:38:44.877Z,86.05
2017-08-29T03:39:44.878Z,86.10
2017-08-29T03:40:44.931Z,86.05
2017-08-29T03:41:44.931Z,86.05
2017-08-29T03:42:44.922Z,86.25
2017-08-29T03:43:44.938Z,86.15
2017-08-29T03:44:44.953Z,85.96
2017-08-29T03:45:44.963Z,86.05
2017-08-29T03:46:44.974Z,85.96
2017-08-29T03:47:45.001Z,85.81
2017-08-29T03:48:45.012Z,85.77
2017-08-29T03:49:45.021Z,86.05
2017-08-29T03:50:45.047Z,86.44
2017-08-29T03:51:45.054Z,86.15
2017-08-29T03:52:45.066Z,86.34
2017-08-29T03:53:45.068Z,86.29
2017-08-29T03:54:45.072Z,86.25
2017-08-29T03:55:45.099Z,86.25
2017-08-29T03:56:45.134Z,86.34
2017-08-29T03:57:45.117Z,86.05
2017-08-29T03:58:45.133Z,85.86
2017-08-29T03:59:45.147Z,85.77
2017-08-29T04:00:45.151Z,85.67
2017-08-29T04:01:45.176Z,85.86
2017-08-29T04:02:45.179Z,85.96
2017-08-29T04:03:45.192Z,85.96
2017-08-29T04:04:45.208Z,86.54
2017-08-29T04:05:45.243Z,86.44
2017-08-29T04:06:45.230Z,86.25
2017-08-29T04:07:45.260Z,86.34
2017-08-29T04:08:45.247Z,86.25
2017-08-29T04:09:45.287Z,86.34
2017-08-29T04:10:45.289Z,86.44
2017-08-29T04:11:45.298Z,86.34
2017-08-29T04:12:45.330Z,86.15
2017-08-29T04:13:45.395Z,86.25
2017-08-29T04:14:45.336Z,86.34
2017-08-29T04:15:45.361Z,86.15
2017-08-29T04:16:45.363Z,86.15
2017-08-29T04:17:45.365Z,86.25
2017-08-29T04:18:45.391Z,86.54
2017-08-29T04:19:45.418Z,86.44
2017-08-29T04:20:45.423Z,86.54
2017-08-29T04:21:45.426Z,86.63
2017-08-29T04:22:45.429Z,85.96
2017-08-29T04:23:45.452Z,86.63
2017-08-29T04:24:45.458Z,86.44
2017-08-29T04:25:45.477Z,86.54
2017-08-29T04:26:45.486Z,86.63
2017-08-29T04:27:45.500Z,86.54
2017-08-29T04:28:45.521Z,86.54
2017-08-29T04:29:45.539Z,86.63
2017-08-29T04:30:45.562Z,86.63
2017-08-29T04:31:45.562Z,86.44
2017-08-29T04:32:45.560Z,86.63
2017-08-29T04:33:45.604Z,86.63
2017-08-29T04:34:45.622Z,86.68
2017-08-29T04:35:45.608Z,86.44
2017-08-29T04:36:45.614Z,86.63
2017-08-29T04:37:45.624Z,86.72
2017-08-29T04:38:45.655Z,87.30
2017-08-29T04:39:45.646Z,86.88
2017-08-29T04:40:45.655Z,87.11
2017-08-29T04:41:45.694Z,86.92
2017-08-29T04:42:45.687Z,87.49
2017-08-29T04:43:45.727Z,87.78
2017-08-29T04:44:45.710Z,87.49
2017-08-29T04:45:45.743Z,87.49
2017-08-29T04:46:45.733Z,87.68
2017-08-29T04:47:45.743Z,87.68
2017-08-29T04:48:45.767Z,87.68
2017-08-29T04:49:45.804Z,87.68
2017-08-29T04:50:45.788Z,87.49
2017-08-29T04:51:45.797Z,87.49
2017-08-29T04:52:45.821Z,87.78
2017-08-29T04:53:45.828Z,87.68
2017-08-29T04:54:45.840Z,87.78
2017-08-29T04:55:45.854Z,87.68
2017-08-29T04:56:45.855Z,87.68
2017-08-29T04:57:45.873Z,87.49
2017-08-29T04:58:45.885Z,87.59
2017-08-29T04:59:45.895Z,87.49
2017-08-29T05:00:45.920Z,87.98
2017-08-29T05:01:45.945Z,87.49
2017-08-29T05:02:45.967Z,87.59
2017-08-29T05:03:45.974Z,87.49
2017-08-29T05:04:45.972Z,87.68
2017-08-29T05:05:45.969Z,87.59
2017-08-29T05:06:45.993Z,87.78
2017-08-29T05:07:46.004Z,87.78
2017-08-29T05:08:46.011Z,87.78
2017-08-29T05:09:46.026Z,87.40
2017-08-29T05:10:46.035Z,87.78
2017-08-29T05:11:46.083Z,87.98
2017-08-29T05:12:46.059Z,87.98
2017-08-29T05:13:46.082Z,87.88
2017-08-29T05:14:46.080Z,87.78
2017-08-29T05:15:46.104Z,87.49
2017-08-29T05:16:46.104Z,87.98
2017-08-29T05:17:46.137Z,87.59
2017-08-29T05:18:46.147Z,87.88
2017-08-29T05:19:46.148Z,87.88
2017-08-29T05:20:46.174Z,87.88
2017-08-29T05:21:46.181Z,87.88
2017-08-29T05:22:46.189Z,87.88
2017-08-29T05:23:46.203Z,87.88
2017-08-29T05:24:46.223Z,87.68
2017-08-29T05:25:46.262Z,87.59
2017-08-29T05:26:46.248Z,87.49
2017-08-29T05:27:46.304Z,87.49
2017-08-29T05:28:46.280Z,87.78
2017-08-29T05:29:46.292Z,87.78
2017-08-29T05:30:46.296Z,87.98
2017-08-29T05:31:46.302Z,87.49
2017-08-29T05:32:46.324Z,87.68
2017-08-29T05:33:46.353Z,87.49
2017-08-29T05:34:46.349Z,87.59
2017-08-29T05:35:46.356Z,87.21
2017-08-29T05:36:46.377Z,87.49
2017-08-29T05:37:46.391Z,87.30
2017-08-29T05:38:46.395Z,87.59
2017-08-29T05:39:46.407Z,87.92
2017-08-29T05:40:46.437Z,87.54
2017-08-29T05:41:46.450Z,87.73
2017-08-29T05:42:46.487Z,87.82
2017-08-29T05:43:46.469Z,87.92
2017-08-29T05:44:46.482Z,87.63
2017-08-29T05:45:46.484Z,88.40
2017-08-29T05:46:46.529Z,88.59
2017-08-29T05:47:46.511Z,88.02
2017-08-29T05:48:46.536Z,88.40
2017-08-29T05:49:46.542Z,87.92
2017-08-29T05:50:46.565Z,88.02
2017-08-29T05:51:46.573Z,87.92
2017-08-29T05:52:46.577Z,87.73
2017-08-29T05:53:46.590Z,87.96
2017-08-29T05:54:46.622Z,88.54
2017-08-29T05:55:46.621Z,88.73
2017-08-29T05:56:46.645Z,87.87
2017-08-29T05:57:46.643Z,88.73
2017-08-29T05:58:46.656Z,88.54
2017-08-29T05:59:46.672Z,88.45
2017-08-29T06:00:46.685Z,88.73
2017-08-29T06:01:46.714Z,88.73
2017-08-29T06:02:46.705Z,88.06
2017-08-29T06:03:46.720Z,88.35
2017-08-29T06:04:46.744Z,88.49
2017-08-29T06:05:46.749Z,88.59
2017-08-29T06:06:46.759Z,88.78
2017-08-29T06:07:46.800Z,87.92
2017-08-29T06:08:46.804Z,88.10
2017-08-29T06:09:46.825Z,88.10
2017-08-29T06:10:46.836Z,88.06
2017-08-29T06:11:46.862Z,87.53
2017-08-29T06:12:46.842Z,87.09
2017-08-29T06:13:46.850Z,86.02
2017-08-29T06:14:46.884Z,83.89
2017-08-29T06:15:46.879Z,81.57
2017-08-29T06:16:46.897Z,79.68
2017-08-29T06:17:46.909Z,76.43
2017-08-29T06:18:46.921Z,75.12
2017-08-29T06:19:46.926Z,74.00
2017-08-29T06:20:46.956Z,72.58
2017-08-29T06:21:46.979Z,70.68
2017-08-29T06:22:46.981Z,69.75
2017-08-29T06:23:47.029Z,69.11
2017-08-29T06:24:47.006Z,68.56
2017-08-29T06:25:47.026Z,67.72
2017-08-29T06:26:47.041Z,66.60
2017-08-29T06:27:47.060Z,65.82
2017-08-29T06:28:47.104Z,65.95
2017-08-29T06:29:47.086Z,64.88
2017-08-29T06:30:47.116Z,64.43
2017-08-29T06:31:47.146Z,63.88
2017-08-29T06:32:47.136Z,61.94
2017-08-29T06:33:47.198Z,59.90
2017-08-29T06:34:47.161Z,61.09
2017-08-29T06:35:47.195Z,59.44
2017-08-29T06:36:47.201Z,59.15
2017-08-29T06:37:47.217Z,59.38
2017-08-29T06:38:47.246Z,58.11
2017-08-29T06:39:47.243Z,58.98
2017-08-29T06:40:47.267Z,59.69
2017-08-29T06:41:47.280Z,59.63
2017-08-29T06:42:47.340Z,59.43
2017-08-29T06:43:47.309Z,56.74
2017-08-29T06:44:47.351Z,56.84
2017-08-29T06:45:47.364Z,58.29
2017-08-29T06:46:47.376Z,57.74
2017-08-29T06:47:47.376Z,58.03
2017-08-29T06:48:47.390Z,57.93
2017-08-29T06:49:47.414Z,53.94
2017-08-29T06:50:47.448Z,54.16
2017-08-29T06:51:47.447Z,53.67
2017-08-29T06:52:47.464Z,54.26
2017-08-29T06:53:47.532Z,52.80
2017-08-29T06:54:47.491Z,52.12
2017-08-29T06:55:47.536Z,53.19
2017-08-29T06:56:47.555Z,53.58
2017-08-29T06:57:47.595Z,54.38
2017-08-29T06:58:47.566Z,54.28
2017-08-29T06:59:47.591Z,53.89
2017-08-29T07:00:47.612Z,53.80
2017-08-29T07:01:47.631Z,52.04
2017-08-29T07:02:47.641Z,52.92
2017-08-29T07:03:47.713Z,52.34
2017-08-29T07:04:47.700Z,51.85
2017-08-29T07:05:47.697Z,51.29
2017-08-29T07:06:47.742Z,52.75
2017-08-29T07:07:47.763Z,51.48
2017-08-29T07:08:47.768Z,51.48
2017-08-29T07:09:47.774Z,50.99
2017-08-29T07:10:47.822Z,50.99
2017-08-29T07:11:47.817Z,51.80
2017-08-29T07:12:47.830Z,50.82
2017-08-29T07:13:47.887Z,51.70
2017-08-29T07:14:47.890Z,51.21
2017-08-29T07:15:47.884Z,51.12
2017-08-29T07:16:47.948Z,50.53
2017-08-29T07:17:47.927Z,50.46
2017-08-29T07:18:47.952Z,50.07
2017-08-29T07:19:47.971Z,48.90
2017-08-29T07:20:48.000Z,49.68
2017-08-29T07:21:48.011Z,49.88
2017-08-29T07:22:48.043Z,49.88
2017-08-29T07:23:48.042Z,50.78
2017-08-29T07:24:48.069Z,50.98
2017-08-29T07:25:48.074Z,50.00
2017-08-29T07:26:48.084Z,49.51
2017-08-29T07:27:48.110Z,50.59
2017-08-29T07:28:48.176Z,49.41
2017-08-29T07:29:48.169Z,48.73
2017-08-29T07:30:48.180Z,50.00
2017-08-29T07:31:48.218Z,50.49
2017-08-29T07:32:48.204Z,48.05
2017-08-29T07:33:48.245Z,47.36
2017-08-29T07:34:48.249Z,48.14
2017-08-29T07:35:48.310Z,49.02
2017-08-29T07:36:48.300Z,49.12
2017-08-29T07:37:48.310Z,48.14
2017-08-29T07:38:48.344Z,47.27
2017-08-29T07:39:48.379Z,48.44
2017-08-29T07:40:48.351Z,49.02
2017-08-29T07:41:48.409Z,50.00
2017-08-29T07:42:48.411Z,49.90
2017-08-29T07:43:48.423Z,48.14
2017-08-29T07:44:48.445Z,48.16
2017-08-29T07:45:48.475Z,48.44
2017-08-29T07:46:48.471Z,47.95
2017-08-29T07:47:48.492Z,48.73
2017-08-29T07:48:48.504Z,48.24
2017-08-29T07:49:48.538Z,48.44
2017-08-29T07:50:48.560Z,47.95
2017-08-29T07:51:48.586Z,48.24
2017-08-29T07:52:48.639Z,49.51
2017-08-29T07:53:48.623Z,49.41
2017-08-29T07:54:48.637Z,49.22
2017-08-29T07:55:48.645Z,49.02
2017-08-29T07:56:48.673Z,48.14
2017-08-29T07:57:48.683Z,48.93
2017-08-29T07:58:48.718Z,49.02
2017-08-29T07:59:48.742Z,48.05
2017-08-29T08:00:48.761Z,47.63
2017-08-29T08:01:48.751Z,48.71
2017-08-29T08:02:48.775Z,49.98
2017-08-29T08:03:48.814Z,48.80
2017-08-29T08:04:48.835Z,49.00
2017-08-29T08:05:48.862Z,49.95
2017-08-29T08:06:48.854Z,50.04
2017-08-29T08:07:48.869Z,50.43
2017-08-29T08:08:48.924Z,50.82
2017-08-29T08:09:48.925Z,50.63
2017-08-29T08:10:48.926Z,50.14
2017-08-29T08:11:48.944Z,50.34
2017-08-29T08:12:48.996Z,51.31
2017-08-29T08:13:48.978Z,51.31
2017-08-29T08:14:48.999Z,50.82
2017-08-29T08:15:49.047Z,50.60
2017-08-29T08:16:49.066Z,51.58
2017-08-29T08:17:49.061Z,51.68
2017-08-29T08:18:49.084Z,51.87
2017-08-29T08:19:49.105Z,51.58
2017-08-29T08:20:49.128Z,51.87
2017-08-29T08:21:49.135Z,52.44
2017-08-29T08:22:49.188Z,51.87
2017-08-29T08:23:49.196Z,52.73
2017-08-29T08:24:49.210Z,53.02
2017-08-29T08:25:49.225Z,53.50
2017-08-29T08:26:49.248Z,53.53
2017-08-29T08:27:49.267Z,53.11
2017-08-29T08:28:49.312Z,53.89
2017-08-29T08:29:49.317Z,53.73
2017-08-29T08:30:49.324Z,53.89
2017-08-29T08:31:49.330Z,54.11
2017-08-29T08:32:49.378Z,54.21
2017-08-29T08:33:49.364Z,53.83
2017-08-29T08:34:49.387Z,53.73
2017-08-29T08:35:49.404Z,53.24
2017-08-29T08:36:49.429Z,53.92
2017-08-29T08:37:49.446Z,54.11
2017-08-29T08:38:49.493Z,54.21
2017-08-29T08:39:49.467Z,53.53
2017-08-29T08:40:49.526Z,52.36
2017-08-29T08:41:49.509Z,52.95
2017-08-29T08:42:49.547Z,54.31
2017-08-29T08:43:49.550Z,54.02
2017-08-29T08:44:49.576Z,54.31
2017-08-29T08:45:49.588Z,54.80
2017-08-29T08:46:49.606Z,53.83
2017-08-29T08:47:49.650Z,54.31
2017-08-29T08:48:49.651Z,54.09
2017-08-29T08:49:49.682Z,53.14
2017-08-29T08:50:49.726Z,53.80
2017-08-29T08:51:49.697Z,54.19
2017-08-29T08:52:49.745Z,53.60
2017-08-29T08:53:49.735Z,53.70
2017-08-29T08:54:49.778Z,53.31
2017-08-29T08:55:49.782Z,53.89
2017-08-29T08:56:49.804Z,54.28
2017-08-29T08:57:49.810Z,54.28
2017-08-29T08:58:49.841Z,54.38
2017-08-29T08:59:49.886Z,53.89
2017-08-29T09:00:49.885Z,54.09
2017-08-29T09:01:49.894Z,52.92
2017-08-29T09:02:49.900Z,53.31
2017-08-29T09:03:49.966Z,53.60
2017-08-29T09:04:49.963Z,53.80
2017-08-29T09:05:49.971Z,54.09
2017-08-29T09:06:49.971Z,54.28
2017-08-29T09:07:50.006Z,54.28
2017-08-29T09:08:50.028Z,54.19
2017-08-29T09:09:50.088Z,53.89
2017-08-29T09:10:50.068Z,54.09
2017-08-29T09:11:50.122Z,53.89
2017-08-29T09:12:50.107Z,54.28
2017-08-29T09:13:50.108Z,54.09
2017-08-29T09:14:50.140Z,54.19
2017-08-29T09:15:50.164Z,53.99
2017-08-29T09:16:50.166Z,54.09
2017-08-29T09:17:50.190Z,54.09
2017-08-29T09:18:50.220Z,53.89
2017-08-29T09:19:50.219Z,54.77
2017-08-29T09:20:50.255Z,54.19
2017-08-29T09:21:50.255Z,54.68
2017-08-29T09:22:50.267Z,55.26
2017-08-29T09:23:50.292Z,55.26
2017-08-29T09:24:50.329Z,55.94
2017-08-29T09:25:50.363Z,54.60
2017-08-29T09:26:50.384Z,54.21
2017-08-29T09:27:50.381Z,53.73
2017-08-29T09:28:50.396Z,53.83
2017-08-29T09:29:50.444Z,53.89
2017-08-29T09:30:50.462Z,53.99
2017-08-29T09:31:50.459Z,53.89
2017-08-29T09:32:50.484Z,53.92
2017-08-29T09:33:50.484Z,53.41
2017-08-29T09:34:50.551Z,53.34
2017-08-29T09:35:50.541Z,54.11
2017-08-29T09:36:50.552Z,54.21
2017-08-29T09:37:50.563Z,53.34
2017-08-29T09:38:50.572Z,53.24
2017-08-29T09:39:50.615Z,53.11
2017-08-29T09:40:50.642Z,51.85
2017-08-29T09:41:50.669Z,52.92
2017-08-29T09:42:50.688Z,52.63
2017-08-29T09:43:50.712Z,52.53
2017-08-29T09:44:50.711Z,53.21
2017-08-29T09:45:50.697Z,53.21
2017-08-29T09:46:50.717Z,53.21
2017-08-29T09:47:50.780Z,53.60
2017-08-29T09:48:50.805Z,52.63
2017-08-29T09:49:50.800Z,52.34
2017-08-29T09:50:50.808Z,53.11
2017-08-29T09:51:50.861Z,52.63
2017-08-29T09:52:50.845Z,52.53
2017-08-29T09:53:50.856Z,52.92
2017-08-29T09:54:50.904Z,52.73
2017-08-29T09:55:50.928Z,52.63
2017-08-29T09:56:50.908Z,53.60
2017-08-29T09:57:50.943Z,53.31
2017-08-29T09:58:50.957Z,53.02
2017-08-29T09:59:50.984Z,53.41
2017-08-29T10:00:51.013Z,51.65
2017-08-29T10:01:51.038Z,51.56
2017-08-29T10:02:51.028Z,51.95
2017-08-29T10:03:51.046Z,52.07
2017-08-29T10:04:51.090Z,51.87
2017-08-29T10:05:51.096Z,52.56
2017-08-29T10:06:51.107Z,51.39
2017-08-29T10:07:51.140Z,51.39
2017-08-29T10:08:51.154Z,50.70
2017-08-29T10:09:51.156Z,50.99
2017-08-29T10:10:51.193Z,51.29
2017-08-29T10:11:51.207Z,50.02
2017-08-29T10:12:51.213Z,50.02
2017-08-29T10:13:51.238Z,49.73
2017-08-29T10:14:51.300Z,49.61
2017-08-29T10:15:51.268Z,49.51
2017-08-29T10:16:51.305Z,49.80
2017-08-29T10:17:51.317Z,49.80
2017-08-29T10:18:51.329Z,50.58
2017-08-29T10:19:51.376Z,51.09
2017-08-29T10:20:51.381Z,49.73
2017-08-29T10:21:51.426Z,49.73
2017-08-29T10:22:51.421Z,49.32
2017-08-29T10:23:51.427Z,48.46
2017-08-29T10:24:51.484Z,48.75
2017-08-29T10:25:51.463Z,49.63
2017-08-29T10:26:51.475Z,49.80
2017-08-29T10:27:51.527Z,49.73
2017-08-29T10:28:51.506Z,50.41
2017-08-29T10:29:51.534Z,49.24
2017-08-29T10:30:51.571Z,49.93
2017-08-29T10:31:51.582Z,48.95
2017-08-29T10:32:51.597Z,48.44
2017-08-29T10:33:51.606Z,49.15
2017-08-29T10:34:51.621Z,48.46
2017-08-29T10:35:51.653Z,48.17
2017-08-29T10:36:51.717Z,48.66
2017-08-29T10:37:51.727Z,48.85
2017-08-29T10:38:51.717Z,48.17
2017-08-29T10:39:51.721Z,49.32
2017-08-29T10:40:51.742Z,49.99
2017-08-29T10:41:51.765Z,49.05
2017-08-29T10:42:51.805Z,48.83
2017-08-29T10:43:51.813Z,48.56
2017-08-29T10:44:51.815Z,47.66
2017-08-29T10:45:51.861Z,48.54
2017-08-29T10:46:51.854Z,48.24
2017-08-29T10:47:51.898Z,49.99
2017-08-29T10:48:51.918Z,49.90
2017-08-29T10:49:51.904Z,50.19
2017-08-29T10:50:51.941Z,50.29
2017-08-29T10:51:51.959Z,48.63
2017-08-29T10:52:51.984Z,49.22
2017-08-29T10:53:51.989Z,48.14
2017-08-29T10:54:52.029Z,48.73
2017-08-29T10:55:52.020Z,49.15
2017-08-29T10:56:52.058Z,47.68
2017-08-29T10:57:52.086Z,47.97
2017-08-29T10:58:52.115Z,47.39
2017-08-29T10:59:52.138Z,48.07
2017-08-29T11:00:52.119Z,47.19
2017-08-29T11:01:52.137Z,48.07
2017-08-29T11:02:52.147Z,48.27
2017-08-29T11:03:52.195Z,47.97
2017-08-29T11:04:52.193Z,47.68
2017-08-29T11:05:52.225Z,47.68
2017-08-29T11:06:52.236Z,48.07
2017-08-29T11:07:52.278Z,47.39
2017-08-29T11:08:52.266Z,48.07
2017-08-29T11:09:52.307Z,47.49
2017-08-29T11:10:52.329Z,47.09
2017-08-29T11:11:52.332Z,47.29
2017-08-29T11:12:52.351Z,46.41
2017-08-29T11:13:52.359Z,46.22
2017-08-29T11:14:52.391Z,46.31
2017-08-29T11:15:52.410Z,47.39
2017-08-29T11:16:52.421Z,47.09
2017-08-29T11:17:52.470Z,47.58
2017-08-29T11:18:52.458Z,47.09
2017-08-29T11:19:52.464Z,47.78
2017-08-29T11:20:52.485Z,47.07
2017-08-29T11:21:52.500Z,47.09
2017-08-29T11:22:52.526Z,46.61
2017-08-29T11:23:52.545Z,47.09
2017-08-29T11:24:52.602Z,47.97
2017-08-29T11:25:52.634Z,48.36
2017-08-29T11:26:52.592Z,48.56
2017-08-29T11:27:52.664Z,47.97
2017-08-29T11:28:52.636Z,47.39
2017-08-29T11:29:52.692Z,46.41
2017-08-29T11:30:52.683Z,47.19
2017-08-29T11:31:52.726Z,47.88
2017-08-29T11:32:52.758Z,47.09
2017-08-29T11:33:52.733Z,46.51
2017-08-29T11:34:52.758Z,46.41
2017-08-29T11:35:52.782Z,46.51
2017-08-29T11:36:52.790Z,47.19
2017-08-29T11:37:52.816Z,47.68
2017-08-29T11:38:52.834Z,47.78
2017-08-29T11:39:52.858Z,48.85
2017-08-29T11:40:52.861Z,48.07
2017-08-29T11:41:52.910Z,48.36
2017-08-29T11:42:52.944Z,47.39
2017-08-29T11:43:52.940Z,47.49
2017-08-29T11:44:52.939Z,47.39
2017-08-29T11:45:53.011Z,47.09
2017-08-29T11:46:53.001Z,47.78
2017-08-29T11:47:53.001Z,47.68
2017-08-29T11:48:53.030Z,47.00
2017-08-29T11:49:53.054Z,47.09
2017-08-29T11:50:53.049Z,47.39
2017-08-29T11:51:53.079Z,47.68
2017-08-29T11:52:53.096Z,47.19
2017-08-29T11:53:53.115Z,47.09
2017-08-29T11:54:53.138Z,47.09
2017-08-29T11:55:53.153Z,47.58
2017-08-29T11:56:53.161Z,47.09
2017-08-29T11:57:53.175Z,46.51
2017-08-29T11:58:53.231Z,47.09
2017-08-29T11:59:53.234Z,47.39
2017-08-29T12:00:53.233Z,47.29
2017-08-29T12:01:53.297Z,47.00
2017-08-29T12:02:53.305Z,46.41
2017-08-29T12:03:53.316Z,46.31
2017-08-29T12:04:53.340Z,46.22
2017-08-29T12:05:53.342Z,46.34
2017-08-29T12:06:53.394Z,47.12
2017-08-29T12:07:53.369Z,47.88
2017-08-29T12:08:53.436Z,48.07
2017-08-29T12:09:53.421Z,47.00
2017-08-29T12:10:53.508Z,46.04
2017-08-29T12:11:53.462Z,46.22
2017-08-29T12:12:53.471Z,45.85
2017-08-29T12:13:53.508Z,46.22
2017-08-29T12:14:53.517Z,45.95
2017-08-29T12:15:53.574Z,46.04
2017-08-29T12:16:53.543Z,46.44
2017-08-29T12:17:53.574Z,46.14
2017-08-29T12:18:53.587Z,46.14
2017-08-29T12:19:53.626Z,46.04
2017-08-29T12:20:53.613Z,46.24
2017-08-29T12:21:53.647Z,46.24
2017-08-29T12:22:53.651Z,45.56
2017-08-29T12:23:53.692Z,45.75
2017-08-29T12:24:53.690Z,45.65
2017-08-29T12:25:53.721Z,45.36
2017-08-29T12:26:53.764Z,44.68
2017-08-29T12:27:53.763Z,45.26
2017-08-29T12:28:53.767Z,45.56
2017-08-29T12:29:53.787Z,45.56
2017-08-29T12:30:53.810Z,45.95
2017-08-29T12:31:53.810Z,43.51
2017-08-29T12:32:53.861Z,43.71
2017-08-29T12:33:53.865Z,43.99
2017-08-29T12:34:53.895Z,43.51
2017-08-29T12:35:53.900Z,44.19
2017-08-29T12:36:53.931Z,44.58
2017-08-29T12:37:53.945Z,44.29
2017-08-29T12:38:53.979Z,44.19
2017-08-29T12:39:53.977Z,43.12
2017-08-29T12:40:53.983Z,43.22
2017-08-29T12:41:54.039Z,44.09
2017-08-29T12:42:54.037Z,43.61
2017-08-29T12:43:54.053Z,45.17
2017-08-29T12:44:54.087Z,45.07
2017-08-29T12:45:54.091Z,44.68
2017-08-29T12:46:54.105Z,44.78
2017-08-29T12:47:54.134Z,45.46
2017-08-29T12:48:54.194Z,45.26
2017-08-29T12:49:54.162Z,45.26
2017-08-29T12:50:54.197Z,44.97
2017-08-29T12:51:54.202Z,44.97
2017-08-29T12:52:54.226Z,43.73